Henrico, NC (27842)

12:44 PM EST on November 23, 2014 (GMT -0500)
Lake Gaston | Change Station
CLOSE
Current Station
Personal Weather Station
Location: Littleton, NC
Elevation: 220 ft
Nearby Weather Stations

Elev 220 ft 36.48 °N, 77.93 °W | Updated 3 minutes ago

Mostly Cloudy
Mostly Cloudy
55.5 °F
Feels Like 55.5 °F
N
1.0
Wind Variable Wind from South
Gusts 1.0 mph

Today
High -- | Low -- °F
--% Chance of Precip.
Yesterday
High -- | Low -- °F
Precip. -- in
6:57 AM 4:58 PM
New Moon, 2% visible
Pressure 30.20 in
Visibility 10.0 miles
Clouds Mostly Cloudy 3200 ft
Mostly Cloudy 12000 ft
Dew Point 49 °F
Humidity 79%
Rainfall 0.00 in
Snow Depth Not available.
UV 2 out of 12
Pollen .30 out of 12
Air Quality Not available.
Flu Activity Not available.
METAR KAVC 231736Z AUTO 00000KT 10SM BKN032 BKN120 11/07 A3020 RMK AO2 T01140067

More Conditions Fewer Conditions

Pressure 30.20 in
Visibility 10.0 miles
Clouds Mostly Cloudy 3200 ft
Mostly Cloudy 12000 ft
Dew Point 49 °F
Humidity 79%
Rainfall 0.00 in
Snow Depth Not available.
UV 2 out of 12
Pollen .30 out of 12
Air Quality Not available.
Flu Activity Not available.
METAR KAVC 231736Z AUTO 00000KT 10SM BKN032 BKN120 11/07 A3020 RMK AO2 T01140067

More Conditions Fewer Conditions

10-Day Weather Forecast

Almanac

Astronomy

Nov. 23, 2014 Rise Set
Actual Time
Civil Twilight
Nautical Twilight
Astronomical Twilight
Moon
Length of Visible Light
Length of Day
Tomorrow will be .
, % of the Moon is Illuminated

Today's Extremes

State Highs State Lows

Community

WunderPhotos

Upload Photos

1,773,116 photos uploaded!

WunderBlogs® & News

Nearby

Air Quality

  Air Quality AQ Index Pollutant
Not available.

Snow Depth

Station Depth Elevation

Earthquake Activity

City Distance Mag. Time & Date
Minimum magnitude displayed is 2.5.

Coastal Water Temperatures

Place Temperature

Nearby Weather Stations